sensor_id;sensor_type;location;lat;lon;timestamp;P1;durP1;ratioP1;P2;durP2;ratioP2
20397;SDS011;10358;49.590;11.030;2022-12-18T00:01:13;68.57;;;23.73;;
20397;SDS011;10358;49.590;11.030;2022-12-18T00:03:40;56.87;;;24.07;;
20397;SDS011;10358;49.590;11.030;2022-12-18T00:06:06;63.97;;;21.60;;
20397;SDS011;10358;49.590;11.030;2022-12-18T00:08:31;54.80;;;21.30;;
20397;SDS011;10358;49.590;11.030;2022-12-18T00:11:02;58.40;;;20.40;;
20397;SDS011;10358;49.590;11.030;2022-12-18T00:13:32;55.23;;;21.43;;
20397;SDS011;10358;49.590;11.030;2022-12-18T00:16:05;58.70;;;20.53;;
20397;SDS011;10358;49.590;11.030;2022-12-18T00:18:33;75.53;;;25.10;;
20397;SDS011;10358;49.590;11.030;2022-12-18T00:20:59;63.80;;;23.93;;
20397;SDS011;10358;49.590;11.030;2022-12-18T00:23:27;55.53;;;22.30;;
20397;SDS011;10358;49.590;11.030;2022-12-18T00:25:53;62.10;;;22.63;;
20397;SDS011;10358;49.590;11.030;2022-12-18T00:28:19;53.93;;;21.67;;
20397;SDS011;10358;49.590;11.030;2022-12-18T00:30:44;57.70;;;21.13;;
20397;SDS011;10358;49.590;11.030;2022-12-18T00:33:10;54.50;;;22.10;;
20397;SDS011;10358;49.590;11.030;2022-12-18T00:35:35;60.23;;;20.93;;
20397;SDS011;10358;49.590;11.030;2022-12-18T00:38:01;52.33;;;21.33;;
20397;SDS011;10358;49.590;11.030;2022-12-18T00:40:26;62.10;;;22.13;;
20397;SDS011;10358;49.590;11.030;2022-12-18T00:42:52;54.70;;;21.10;;
20397;SDS011;10358;49.590;11.030;2022-12-18T00:45:25;59.57;;;21.93;;
20397;SDS011;10358;49.590;11.030;2022-12-18T00:47:51;54.97;;;19.87;;
20397;SDS011;10358;49.590;11.030;2022-12-18T00:50:17;47.63;;;19.27;;
20397;SDS011;10358;49.590;11.030;2022-12-18T00:52:43;52.10;;;19.77;;
20397;SDS011;10358;49.590;11.030;2022-12-18T00:55:09;53.77;;;19.30;;
20397;SDS011;10358;49.590;11.030;2022-12-18T00:57:35;58.00;;;20.10;;
20397;SDS011;10358;49.590;11.030;2022-12-18T01:00:01;50.17;;;18.93;;
20397;SDS011;10358;49.590;11.030;2022-12-18T01:02:29;52.97;;;19.13;;
20397;SDS011;10358;49.590;11.030;2022-12-18T01:04:55;51.23;;;18.17;;
20397;SDS011;10358;49.590;11.030;2022-12-18T01:07:20;54.30;;;20.00;;
20397;SDS011;10358;49.590;11.030;2022-12-18T01:09:46;49.93;;;18.97;;
20397;SDS011;10358;49.590;11.030;2022-12-18T01:12:11;50.57;;;18.67;;
20397;SDS011;10358;49.590;11.030;2022-12-18T01:14:37;56.53;;;21.13;;
20397;SDS011;10358;49.590;11.030;2022-12-18T01:17:03;53.07;;;19.73;;
20397;SDS011;10358;49.590;11.030;2022-12-18T01:19:29;51.17;;;19.77;;
20397;SDS011;10358;49.590;11.030;2022-12-18T01:21:54;55.23;;;20.73;;
20397;SDS011;10358;49.590;11.030;2022-12-18T01:24:20;62.83;;;21.50;;
20397;SDS011;10358;49.590;11.030;2022-12-18T01:26:46;57.83;;;19.73;;
20397;SDS011;10358;49.590;11.030;2022-12-18T01:29:11;51.57;;;20.23;;
20397;SDS011;10358;49.590;11.030;2022-12-18T01:31:37;62.07;;;21.67;;
20397;SDS011;10358;49.590;11.030;2022-12-18T01:34:03;52.07;;;20.70;;
20397;SDS011;10358;49.590;11.030;2022-12-18T01:36:30;62.17;;;21.93;;
20397;SDS011;10358;49.590;11.030;2022-12-18T01:38:59;49.67;;;20.63;;
20397;SDS011;10358;49.590;11.030;2022-12-18T01:41:27;53.13;;;19.80;;
20397;SDS011;10358;49.590;11.030;2022-12-18T01:47:21;43.57;;;18.13;;
20397;SDS011;10358;49.590;11.030;2022-12-18T01:49:52;53.97;;;18.60;;
20397;SDS011;10358;49.590;11.030;2022-12-18T01:52:19;55.00;;;18.33;;
20397;SDS011;10358;49.590;11.030;2022-12-18T01:54:46;58.10;;;20.30;;
20397;SDS011;10358;49.590;11.030;2022-12-18T01:57:15;53.33;;;18.80;;
20397;SDS011;10358;49.590;11.030;2022-12-18T01:59:41;51.67;;;18.03;;
20397;SDS011;10358;49.590;11.030;2022-12-18T02:02:10;53.07;;;19.37;;
20397;SDS011;10358;49.590;11.030;2022-12-18T02:04:36;54.27;;;19.60;;
20397;SDS011;10358;49.590;11.030;2022-12-18T02:07:06;51.47;;;19.13;;
20397;SDS011;10358;49.590;11.030;2022-12-18T02:09:48;47.87;;;18.60;;
20397;SDS011;10358;49.590;11.030;2022-12-18T02:12:24;50.37;;;18.70;;
20397;SDS011;10358;49.590;11.030;2022-12-18T02:16:00;46.77;;;17.73;;
20397;SDS011;10358;49.590;11.030;2022-12-18T02:18:05;54.57;;;17.80;;
20397;SDS011;10358;49.590;11.030;2022-12-18T02:20:44;47.80;;;18.63;;
20397;SDS011;10358;49.590;11.030;2022-12-18T02:26:06;51.70;;;17.17;;
20397;SDS011;10358;49.590;11.030;2022-12-18T02:28:36;48.53;;;18.07;;
20397;SDS011;10358;49.590;11.030;2022-12-18T02:31:14;43.27;;;17.50;;
20397;SDS011;10358;49.590;11.030;2022-12-18T02:33:46;51.83;;;19.43;;
20397;SDS011;10358;49.590;11.030;2022-12-18T02:36:13;50.40;;;18.43;;
20397;SDS011;10358;49.590;11.030;2022-12-18T02:38:41;54.50;;;19.23;;
20397;SDS011;10358;49.590;11.030;2022-12-18T02:41:09;54.37;;;18.27;;
20397;SDS011;10358;49.590;11.030;2022-12-18T02:43:35;43.53;;;16.63;;
20397;SDS011;10358;49.590;11.030;2022-12-18T02:46:01;45.60;;;17.07;;
20397;SDS011;10358;49.590;11.030;2022-12-18T02:49:11;50.17;;;16.67;;
20397;SDS011;10358;49.590;11.030;2022-12-18T02:51:56;46.83;;;16.23;;
20397;SDS011;10358;49.590;11.030;2022-12-18T03:00:09;40.97;;;15.70;;
20397;SDS011;10358;49.590;11.030;2022-12-18T03:05:22;45.90;;;16.83;;
20397;SDS011;10358;49.590;11.030;2022-12-18T03:08:12;41.13;;;15.70;;
20397;SDS011;10358;49.590;11.030;2022-12-18T03:10:49;43.80;;;16.63;;
20397;SDS011;10358;49.590;11.030;2022-12-18T03:13:43;47.57;;;16.23;;
20397;SDS011;10358;49.590;11.030;2022-12-18T03:16:32;47.60;;;18.10;;
20397;SDS011;10358;49.590;11.030;2022-12-18T03:19:18;43.53;;;17.30;;
20397;SDS011;10358;49.590;11.030;2022-12-18T03:21:49;45.30;;;17.43;;
20397;SDS011;10358;49.590;11.030;2022-12-18T03:24:18;44.63;;;17.20;;
20397;SDS011;10358;49.590;11.030;2022-12-18T03:26:46;52.93;;;17.63;;
20397;SDS011;10358;49.590;11.030;2022-12-18T03:29:20;46.77;;;17.53;;
20397;SDS011;10358;49.590;11.030;2022-12-18T03:31:52;41.00;;;17.23;;
20397;SDS011;10358;49.590;11.030;2022-12-18T03:34:25;48.17;;;16.93;;
20397;SDS011;10358;49.590;11.030;2022-12-18T03:36:54;44.87;;;17.00;;
20397;SDS011;10358;49.590;11.030;2022-12-18T03:39:20;46.30;;;16.67;;
20397;SDS011;10358;49.590;11.030;2022-12-18T03:41:54;54.57;;;16.63;;
20397;SDS011;10358;49.590;11.030;2022-12-18T03:44:29;46.70;;;16.07;;
20397;SDS011;10358;49.590;11.030;2022-12-18T03:49:57;38.20;;;14.93;;
20397;SDS011;10358;49.590;11.030;2022-12-18T03:52:48;42.40;;;15.97;;
20397;SDS011;10358;49.590;11.030;2022-12-18T03:55:15;51.03;;;18.57;;
20397;SDS011;10358;49.590;11.030;2022-12-18T03:57:42;44.73;;;16.73;;
20397;SDS011;10358;49.590;11.030;2022-12-18T04:00:13;40.47;;;15.90;;
20397;SDS011;10358;49.590;11.030;2022-12-18T04:02:47;50.03;;;17.30;;
20397;SDS011;10358;49.590;11.030;2022-12-18T04:05:16;45.73;;;16.60;;
20397;SDS011;10358;49.590;11.030;2022-12-18T04:07:43;42.27;;;16.67;;
20397;SDS011;10358;49.590;11.030;2022-12-18T04:10:11;48.33;;;17.60;;
20397;SDS011;10358;49.590;11.030;2022-12-18T04:12:38;53.17;;;19.20;;
20397;SDS011;10358;49.590;11.030;2022-12-18T04:15:04;50.27;;;18.33;;
20397;SDS011;10358;49.590;11.030;2022-12-18T04:17:30;44.90;;;17.13;;
20397;SDS011;10358;49.590;11.030;2022-12-18T04:19:56;49.20;;;17.77;;
20397;SDS011;10358;49.590;11.030;2022-12-18T04:22:22;47.93;;;17.17;;
20397;SDS011;10358;49.590;11.030;2022-12-18T04:24:47;51.10;;;18.27;;
20397;SDS011;10358;49.590;11.030;2022-12-18T04:27:13;45.37;;;16.93;;
20397;SDS011;10358;49.590;11.030;2022-12-18T04:29:39;46.83;;;19.10;;
20397;SDS011;10358;49.590;11.030;2022-12-18T04:32:04;57.33;;;18.17;;
20397;SDS011;10358;49.590;11.030;2022-12-18T04:34:30;50.73;;;18.50;;
20397;SDS011;10358;49.590;11.030;2022-12-18T04:36:56;49.23;;;18.90;;
20397;SDS011;10358;49.590;11.030;2022-12-18T04:39:21;57.30;;;20.83;;
20397;SDS011;10358;49.590;11.030;2022-12-18T04:41:47;59.70;;;20.80;;
20397;SDS011;10358;49.590;11.030;2022-12-18T04:44:13;45.67;;;18.90;;
20397;SDS011;10358;49.590;11.030;2022-12-18T04:46:38;53.67;;;18.17;;
20397;SDS011;10358;49.590;11.030;2022-12-18T04:49:04;51.23;;;19.27;;
20397;SDS011;10358;49.590;11.030;2022-12-18T04:51:29;47.13;;;17.73;;
20397;SDS011;10358;49.590;11.030;2022-12-18T04:53:55;44.57;;;16.90;;
20397;SDS011;10358;49.590;11.030;2022-12-18T04:56:20;48.57;;;18.13;;
20397;SDS011;10358;49.590;11.030;2022-12-18T04:58:46;41.00;;;16.77;;
20397;SDS011;10358;49.590;11.030;2022-12-18T05:01:13;58.17;;;19.73;;
20397;SDS011;10358;49.590;11.030;2022-12-18T05:03:40;57.23;;;18.30;;
20397;SDS011;10358;49.590;11.030;2022-12-18T05:06:06;52.33;;;18.23;;
20397;SDS011;10358;49.590;11.030;2022-12-18T05:08:32;52.30;;;18.13;;
20397;SDS011;10358;49.590;11.030;2022-12-18T05:11:02;52.03;;;19.00;;
20397;SDS011;10358;49.590;11.030;2022-12-18T05:13:29;52.73;;;18.33;;
20397;SDS011;10358;49.590;11.030;2022-12-18T05:15:56;51.53;;;18.73;;
20397;SDS011;10358;49.590;11.030;2022-12-18T05:18:22;47.43;;;17.33;;
20397;SDS011;10358;49.590;11.030;2022-12-18T05:20:49;46.67;;;18.40;;
20397;SDS011;10358;49.590;11.030;2022-12-18T05:23:15;42.90;;;17.13;;
20397;SDS011;10358;49.590;11.030;2022-12-18T05:25:40;42.83;;;17.40;;
20397;SDS011;10358;49.590;11.030;2022-12-18T05:28:06;48.33;;;18.83;;
20397;SDS011;10358;49.590;11.030;2022-12-18T05:30:32;49.10;;;17.67;;
20397;SDS011;10358;49.590;11.030;2022-12-18T05:32:59;49.47;;;18.47;;
20397;SDS011;10358;49.590;11.030;2022-12-18T05:35:24;48.73;;;17.00;;
20397;SDS011;10358;49.590;11.030;2022-12-18T05:37:50;46.53;;;16.83;;
20397;SDS011;10358;49.590;11.030;2022-12-18T05:40:15;40.93;;;15.03;;
20397;SDS011;10358;49.590;11.030;2022-12-18T05:42:41;40.67;;;16.53;;
20397;SDS011;10358;49.590;11.030;2022-12-18T05:45:06;45.23;;;17.13;;
20397;SDS011;10358;49.590;11.030;2022-12-18T05:47:32;44.00;;;16.37;;
20397;SDS011;10358;49.590;11.030;2022-12-18T05:49:58;48.00;;;16.83;;
20397;SDS011;10358;49.590;11.030;2022-12-18T05:52:24;38.77;;;12.70;;
20397;SDS011;10358;49.590;11.030;2022-12-18T05:54:49;41.17;;;14.57;;
20397;SDS011;10358;49.590;11.030;2022-12-18T05:57:15;43.70;;;15.33;;
20397;SDS011;10358;49.590;11.030;2022-12-18T05:59:40;46.50;;;15.80;;
20397;SDS011;10358;49.590;11.030;2022-12-18T06:02:06;40.70;;;16.20;;
20397;SDS011;10358;49.590;11.030;2022-12-18T06:04:31;41.43;;;14.93;;
20397;SDS011;10358;49.590;11.030;2022-12-18T06:06:57;39.73;;;15.53;;
20397;SDS011;10358;49.590;11.030;2022-12-18T06:09:23;41.83;;;16.57;;
20397;SDS011;10358;49.590;11.030;2022-12-18T06:11:50;43.30;;;15.97;;
20397;SDS011;10358;49.590;11.030;2022-12-18T06:14:17;38.23;;;14.80;;
20397;SDS011;10358;49.590;11.030;2022-12-18T06:16:42;40.53;;;13.50;;
20397;SDS011;10358;49.590;11.030;2022-12-18T06:19:13;40.63;;;14.97;;
20397;SDS011;10358;49.590;11.030;2022-12-18T06:21:40;41.40;;;15.27;;
20397;SDS011;10358;49.590;11.030;2022-12-18T06:24:06;47.30;;;16.50;;
20397;SDS011;10358;49.590;11.030;2022-12-18T06:26:32;43.63;;;15.70;;
20397;SDS011;10358;49.590;11.030;2022-12-18T06:28:57;50.57;;;16.77;;
20397;SDS011;10358;49.590;11.030;2022-12-18T06:31:23;46.07;;;16.37;;
20397;SDS011;10358;49.590;11.030;2022-12-18T06:33:49;47.20;;;16.57;;
20397;SDS011;10358;49.590;11.030;2022-12-18T06:36:15;50.60;;;17.33;;
20397;SDS011;10358;49.590;11.030;2022-12-18T06:38:42;39.77;;;15.30;;
20397;SDS011;10358;49.590;11.030;2022-12-18T06:41:16;47.83;;;16.57;;
20397;SDS011;10358;49.590;11.030;2022-12-18T06:43:43;48.27;;;16.47;;
20397;SDS011;10358;49.590;11.030;2022-12-18T06:46:09;40.07;;;15.50;;
20397;SDS011;10358;49.590;11.030;2022-12-18T06:48:35;45.43;;;16.43;;
20397;SDS011;10358;49.590;11.030;2022-12-18T06:51:01;49.70;;;17.10;;
20397;SDS011;10358;49.590;11.030;2022-12-18T06:53:27;43.33;;;16.37;;
20397;SDS011;10358;49.590;11.030;2022-12-18T06:55:59;44.80;;;16.20;;
20397;SDS011;10358;49.590;11.030;2022-12-18T06:58:29;41.37;;;15.97;;
20397;SDS011;10358;49.590;11.030;2022-12-18T07:00:59;43.27;;;15.37;;
20397;SDS011;10358;49.590;11.030;2022-12-18T07:03:26;50.30;;;17.10;;
20397;SDS011;10358;49.590;11.030;2022-12-18T07:05:51;46.33;;;16.57;;
20397;SDS011;10358;49.590;11.030;2022-12-18T07:08:17;42.33;;;15.90;;
20397;SDS011;10358;49.590;11.030;2022-12-18T07:10:43;39.40;;;15.17;;
20397;SDS011;10358;49.590;11.030;2022-12-18T07:13:08;45.37;;;16.90;;
20397;SDS011;10358;49.590;11.030;2022-12-18T07:15:34;39.17;;;15.27;;
20397;SDS011;10358;49.590;11.030;2022-12-18T07:18:00;42.93;;;16.00;;
20397;SDS011;10358;49.590;11.030;2022-12-18T07:20:26;47.07;;;16.60;;
20397;SDS011;10358;49.590;11.030;2022-12-18T07:22:51;44.50;;;16.70;;
20397;SDS011;10358;49.590;11.030;2022-12-18T07:25:17;43.03;;;16.30;;
20397;SDS011;10358;49.590;11.030;2022-12-18T07:27:42;44.37;;;17.07;;
20397;SDS011;10358;49.590;11.030;2022-12-18T07:30:08;42.23;;;15.63;;
20397;SDS011;10358;49.590;11.030;2022-12-18T07:32:34;42.07;;;15.73;;
20397;SDS011;10358;49.590;11.030;2022-12-18T07:35:00;47.77;;;18.17;;
20397;SDS011;10358;49.590;11.030;2022-12-18T07:37:25;45.40;;;16.93;;
20397;SDS011;10358;49.590;11.030;2022-12-18T07:39:51;45.73;;;16.63;;
20397;SDS011;10358;49.590;11.030;2022-12-18T07:42:16;48.20;;;16.70;;
20397;SDS011;10358;49.590;11.030;2022-12-18T07:44:57;49.60;;;17.93;;
20397;SDS011;10358;49.590;11.030;2022-12-18T07:47:24;41.53;;;16.97;;
20397;SDS011;10358;49.590;11.030;2022-12-18T07:49:50;41.33;;;16.40;;
20397;SDS011;10358;49.590;11.030;2022-12-18T07:52:15;47.67;;;17.80;;
20397;SDS011;10358;49.590;11.030;2022-12-18T07:54:41;44.90;;;17.27;;
20397;SDS011;10358;49.590;11.030;2022-12-18T07:57:07;49.87;;;17.23;;
20397;SDS011;10358;49.590;11.030;2022-12-18T07:59:33;48.70;;;17.93;;
20397;SDS011;10358;49.590;11.030;2022-12-18T08:01:59;44.63;;;17.80;;
20397;SDS011;10358;49.590;11.030;2022-12-18T08:04:25;51.23;;;18.00;;
20397;SDS011;10358;49.590;11.030;2022-12-18T08:06:50;47.50;;;16.17;;
20397;SDS011;10358;49.590;11.030;2022-12-18T08:09:16;49.83;;;17.67;;
20397;SDS011;10358;49.590;11.030;2022-12-18T08:11:42;55.27;;;18.73;;
20397;SDS011;10358;49.590;11.030;2022-12-18T08:14:08;44.30;;;18.13;;
20397;SDS011;10358;49.590;11.030;2022-12-18T08:16:34;47.70;;;17.93;;
20397;SDS011;10358;49.590;11.030;2022-12-18T08:18:59;49.00;;;17.77;;
20397;SDS011;10358;49.590;11.030;2022-12-18T08:21:26;46.53;;;17.73;;
20397;SDS011;10358;49.590;11.030;2022-12-18T08:23:54;45.33;;;17.13;;
20397;SDS011;10358;49.590;11.030;2022-12-18T08:26:21;42.90;;;16.20;;
20397;SDS011;10358;49.590;11.030;2022-12-18T08:28:48;45.97;;;16.73;;
20397;SDS011;10358;49.590;11.030;2022-12-18T08:31:14;48.57;;;17.80;;
20397;SDS011;10358;49.590;11.030;2022-12-18T08:33:40;46.20;;;17.10;;
20397;SDS011;10358;49.590;11.030;2022-12-18T08:36:06;46.00;;;17.03;;
20397;SDS011;10358;49.590;11.030;2022-12-18T08:38:32;44.40;;;16.60;;
20397;SDS011;10358;49.590;11.030;2022-12-18T08:41:01;44.73;;;17.10;;
20397;SDS011;10358;49.590;11.030;2022-12-18T08:43:28;47.70;;;18.00;;
20397;SDS011;10358;49.590;11.030;2022-12-18T08:46:13;46.00;;;17.13;;
20397;SDS011;10358;49.590;11.030;2022-12-18T08:48:39;45.63;;;17.20;;
20397;SDS011;10358;49.590;11.030;2022-12-18T08:51:05;45.10;;;17.03;;
20397;SDS011;10358;49.590;11.030;2022-12-18T08:53:30;44.37;;;16.30;;
20397;SDS011;10358;49.590;11.030;2022-12-18T08:55:56;46.70;;;17.30;;
20397;SDS011;10358;49.590;11.030;2022-12-18T08:58:22;47.80;;;17.13;;
20397;SDS011;10358;49.590;11.030;2022-12-18T09:00:48;43.67;;;17.23;;
20397;SDS011;10358;49.590;11.030;2022-12-18T09:03:14;44.77;;;16.40;;
20397;SDS011;10358;49.590;11.030;2022-12-18T09:05:41;46.73;;;16.57;;
20397;SDS011;10358;49.590;11.030;2022-12-18T09:08:07;39.90;;;16.20;;
20397;SDS011;10358;49.590;11.030;2022-12-18T09:10:33;44.40;;;16.13;;
20397;SDS011;10358;49.590;11.030;2022-12-18T09:12:58;39.63;;;15.53;;
20397;SDS011;10358;49.590;11.030;2022-12-18T09:15:24;38.77;;;16.43;;
20397;SDS011;10358;49.590;11.030;2022-12-18T09:17:50;44.90;;;16.90;;
20397;SDS011;10358;49.590;11.030;2022-12-18T09:20:17;41.90;;;16.00;;
20397;SDS011;10358;49.590;11.030;2022-12-18T09:22:44;44.40;;;16.80;;
20397;SDS011;10358;49.590;11.030;2022-12-18T09:25:09;45.37;;;17.10;;
20397;SDS011;10358;49.590;11.030;2022-12-18T09:27:35;43.83;;;16.90;;
20397;SDS011;10358;49.590;11.030;2022-12-18T09:30:01;44.80;;;16.80;;
20397;SDS011;10358;49.590;11.030;2022-12-18T09:32:27;45.60;;;17.13;;
20397;SDS011;10358;49.590;11.030;2022-12-18T09:34:52;41.10;;;16.33;;
20397;SDS011;10358;49.590;11.030;2022-12-18T09:37:18;37.97;;;14.87;;
20397;SDS011;10358;49.590;11.030;2022-12-18T09:39:43;40.73;;;16.00;;
20397;SDS011;10358;49.590;11.030;2022-12-18T09:42:13;44.57;;;16.40;;
20397;SDS011;10358;49.590;11.030;2022-12-18T09:44:47;44.43;;;15.87;;
20397;SDS011;10358;49.590;11.030;2022-12-18T09:49:49;38.30;;;15.00;;
20397;SDS011;10358;49.590;11.030;2022-12-18T09:52:22;40.37;;;15.43;;
20397;SDS011;10358;49.590;11.030;2022-12-18T09:57:36;45.10;;;15.90;;
20397;SDS011;10358;49.590;11.030;2022-12-18T10:00:20;37.00;;;14.53;;
20397;SDS011;10358;49.590;11.030;2022-12-18T10:02:47;38.47;;;14.20;;
20397;SDS011;10358;49.590;11.030;2022-12-18T10:05:17;39.60;;;14.40;;
20397;SDS011;10358;49.590;11.030;2022-12-18T10:16:00;37.00;;;14.13;;
20397;SDS011;10358;49.590;11.030;2022-12-18T10:21:26;40.33;;;14.77;;
20397;SDS011;10358;49.590;11.030;2022-12-18T10:24:13;38.90;;;14.20;;
20397;SDS011;10358;49.590;11.030;2022-12-18T10:26:41;36.63;;;14.57;;
20397;SDS011;10358;49.590;11.030;2022-12-18T10:29:16;39.97;;;14.50;;
20397;SDS011;10358;49.590;11.030;2022-12-18T10:31:42;38.53;;;15.50;;
20397;SDS011;10358;49.590;11.030;2022-12-18T10:34:11;32.13;;;13.70;;
20397;SDS011;10358;49.590;11.030;2022-12-18T10:36:37;41.83;;;14.83;;
20397;SDS011;10358;49.590;11.030;2022-12-18T10:39:19;39.77;;;15.03;;
20397;SDS011;10358;49.590;11.030;2022-12-18T10:41:51;38.23;;;14.53;;
20397;SDS011;10358;49.590;11.030;2022-12-18T10:44:23;38.17;;;15.50;;
20397;SDS011;10358;49.590;11.030;2022-12-18T10:46:53;38.87;;;14.80;;
20397;SDS011;10358;49.590;11.030;2022-12-18T10:49:25;40.67;;;15.20;;
20397;SDS011;10358;49.590;11.030;2022-12-18T10:52:04;37.63;;;15.33;;
20397;SDS011;10358;49.590;11.030;2022-12-18T10:54:45;38.93;;;14.33;;
20397;SDS011;10358;49.590;11.030;2022-12-18T10:57:33;37.50;;;14.77;;
20397;SDS011;10358;49.590;11.030;2022-12-18T11:00:24;40.53;;;15.00;;
20397;SDS011;10358;49.590;11.030;2022-12-18T11:02:47;37.13;;;14.07;;
20397;SDS011;10358;49.590;11.030;2022-12-18T11:05:23;41.23;;;15.90;;
20397;SDS011;10358;49.590;11.030;2022-12-18T11:07:57;36.50;;;14.57;;
20397;SDS011;10358;49.590;11.030;2022-12-18T11:10:31;34.93;;;14.20;;
20397;SDS011;10358;49.590;11.030;2022-12-18T11:13:08;33.60;;;13.33;;
20397;SDS011;10358;49.590;11.030;2022-12-18T11:15:37;37.63;;;13.67;;
20397;SDS011;10358;49.590;11.030;2022-12-18T11:18:14;31.70;;;12.93;;
20397;SDS011;10358;49.590;11.030;2022-12-18T11:20:54;37.37;;;13.67;;
20397;SDS011;10358;49.590;11.030;2022-12-18T11:23:22;33.37;;;13.10;;
20397;SDS011;10358;49.590;11.030;2022-12-18T11:25:52;31.47;;;12.83;;
20397;SDS011;10358;49.590;11.030;2022-12-18T11:36:51;35.00;;;14.00;;
20397;SDS011;10358;49.590;11.030;2022-12-18T11:39:24;30.67;;;13.43;;
20397;SDS011;10358;49.590;11.030;2022-12-18T11:42:04;32.00;;;12.97;;
20397;SDS011;10358;49.590;11.030;2022-12-18T11:47:33;38.10;;;14.30;;
20397;SDS011;10358;49.590;11.030;2022-12-18T11:50:10;32.60;;;13.23;;
20397;SDS011;10358;49.590;11.030;2022-12-18T11:52:41;33.20;;;12.90;;
20397;SDS011;10358;49.590;11.030;2022-12-18T11:55:11;33.53;;;13.47;;
20397;SDS011;10358;49.590;11.030;2022-12-18T12:00:52;33.67;;;13.37;;
20397;SDS011;10358;49.590;11.030;2022-12-18T12:03:24;32.07;;;12.97;;
20397;SDS011;10358;49.590;11.030;2022-12-18T12:09:01;34.67;;;13.33;;
20397;SDS011;10358;49.590;11.030;2022-12-18T12:17:27;30.67;;;12.67;;
20397;SDS011;10358;49.590;11.030;2022-12-18T12:28:01;36.17;;;12.97;;
20397;SDS011;10358;49.590;11.030;2022-12-18T12:30:50;34.27;;;13.27;;
20397;SDS011;10358;49.590;11.030;2022-12-18T12:36:18;28.07;;;12.63;;
20397;SDS011;10358;49.590;11.030;2022-12-18T12:39:13;34.57;;;13.20;;
20397;SDS011;10358;49.590;11.030;2022-12-18T12:41:45;32.37;;;12.87;;
20397;SDS011;10358;49.590;11.030;2022-12-18T12:44:32;35.37;;;14.23;;
20397;SDS011;10358;49.590;11.030;2022-12-18T12:47:07;36.50;;;13.83;;
20397;SDS011;10358;49.590;11.030;2022-12-18T12:49:46;30.93;;;13.33;;
20397;SDS011;10358;49.590;11.030;2022-12-18T12:52:33;33.00;;;13.60;;
20397;SDS011;10358;49.590;11.030;2022-12-18T12:55:02;33.47;;;13.07;;
20397;SDS011;10358;49.590;11.030;2022-12-18T13:00:11;30.57;;;12.60;;
20397;SDS011;10358;49.590;11.030;2022-12-18T13:08:00;28.60;;;12.77;;
20397;SDS011;10358;49.590;11.030;2022-12-18T13:10:32;29.20;;;12.77;;
20397;SDS011;10358;49.590;11.030;2022-12-18T13:23:23;30.87;;;13.40;;
20397;SDS011;10358;49.590;11.030;2022-12-18T13:31:13;27.90;;;12.50;;
20397;SDS011;10358;49.590;11.030;2022-12-18T13:34:00;24.13;;;11.83;;
20397;SDS011;10358;49.590;11.030;2022-12-18T13:36:41;30.33;;;12.03;;
20397;SDS011;10358;49.590;11.030;2022-12-18T13:41:48;31.03;;;12.20;;
20397;SDS011;10358;49.590;11.030;2022-12-18T13:46:58;26.90;;;12.23;;
20397;SDS011;10358;49.590;11.030;2022-12-18T13:49:26;27.07;;;11.07;;
20397;SDS011;10358;49.590;11.030;2022-12-18T13:52:00;24.03;;;11.50;;
20397;SDS011;10358;49.590;11.030;2022-12-18T13:54:33;22.93;;;11.13;;
20397;SDS011;10358;49.590;11.030;2022-12-18T13:59:51;26.03;;;11.30;;
20397;SDS011;10358;49.590;11.030;2022-12-18T14:02:18;29.03;;;11.60;;
20397;SDS011;10358;49.590;11.030;2022-12-18T14:04:47;26.13;;;11.70;;
20397;SDS011;10358;49.590;11.030;2022-12-18T14:07:15;23.63;;;10.97;;
20397;SDS011;10358;49.590;11.030;2022-12-18T14:09:56;27.77;;;11.50;;
20397;SDS011;10358;49.590;11.030;2022-12-18T14:12:26;23.40;;;10.97;;
20397;SDS011;10358;49.590;11.030;2022-12-18T14:15:24;23.27;;;11.17;;
20397;SDS011;10358;49.590;11.030;2022-12-18T14:20:40;27.93;;;11.73;;
20397;SDS011;10358;49.590;11.030;2022-12-18T14:23:29;27.83;;;11.23;;
20397;SDS011;10358;49.590;11.030;2022-12-18T14:25:58;23.83;;;10.97;;
20397;SDS011;10358;49.590;11.030;2022-12-18T14:28:24;27.63;;;11.97;;
20397;SDS011;10358;49.590;11.030;2022-12-18T14:30:51;27.10;;;11.97;;
20397;SDS011;10358;49.590;11.030;2022-12-18T14:33:22;25.40;;;11.70;;
20397;SDS011;10358;49.590;11.030;2022-12-18T14:38:27;27.17;;;11.53;;
20397;SDS011;10358;49.590;11.030;2022-12-18T14:41:10;22.40;;;10.57;;
20397;SDS011;10358;49.590;11.030;2022-12-18T14:43:42;29.63;;;11.87;;
20397;SDS011;10358;49.590;11.030;2022-12-18T14:51:48;26.97;;;12.30;;
20397;SDS011;10358;49.590;11.030;2022-12-18T14:54:34;28.53;;;11.33;;
20397;SDS011;10358;49.590;11.030;2022-12-18T14:57:04;30.23;;;12.57;;
20397;SDS011;10358;49.590;11.030;2022-12-18T14:59:31;28.33;;;12.53;;
20397;SDS011;10358;49.590;11.030;2022-12-18T15:04:33;29.13;;;12.47;;
20397;SDS011;10358;49.590;11.030;2022-12-18T15:07:12;32.50;;;12.90;;
20397;SDS011;10358;49.590;11.030;2022-12-18T15:09:39;30.27;;;12.27;;
20397;SDS011;10358;49.590;11.030;2022-12-18T15:12:26;31.07;;;13.23;;
20397;SDS011;10358;49.590;11.030;2022-12-18T15:14:53;31.90;;;13.13;;
20397;SDS011;10358;49.590;11.030;2022-12-18T15:17:22;30.83;;;13.03;;
20397;SDS011;10358;49.590;11.030;2022-12-18T15:19:50;31.07;;;12.83;;
20397;SDS011;10358;49.590;11.030;2022-12-18T15:22:22;35.63;;;12.53;;
20397;SDS011;10358;49.590;11.030;2022-12-18T15:24:51;31.23;;;13.67;;
20397;SDS011;10358;49.590;11.030;2022-12-18T15:27:34;34.43;;;13.23;;
20397;SDS011;10358;49.590;11.030;2022-12-18T15:32:34;33.93;;;13.97;;
20397;SDS011;10358;49.590;11.030;2022-12-18T15:35:02;31.40;;;12.43;;
20397;SDS011;10358;49.590;11.030;2022-12-18T15:37:48;31.87;;;12.93;;
20397;SDS011;10358;49.590;11.030;2022-12-18T15:40:16;28.23;;;11.13;;
20397;SDS011;10358;49.590;11.030;2022-12-18T15:42:43;33.80;;;12.60;;
20397;SDS011;10358;49.590;11.030;2022-12-18T15:45:28;34.30;;;13.10;;
20397;SDS011;10358;49.590;11.030;2022-12-18T15:47:54;32.37;;;12.77;;
20397;SDS011;10358;49.590;11.030;2022-12-18T15:50:20;32.63;;;12.90;;
20397;SDS011;10358;49.590;11.030;2022-12-18T15:52:46;32.83;;;12.97;;
20397;SDS011;10358;49.590;11.030;2022-12-18T15:55:22;26.73;;;12.10;;
20397;SDS011;10358;49.590;11.030;2022-12-18T15:58:07;33.60;;;13.03;;
20397;SDS011;10358;49.590;11.030;2022-12-18T16:00:33;29.53;;;12.63;;
20397;SDS011;10358;49.590;11.030;2022-12-18T16:03:01;30.40;;;12.83;;
20397;SDS011;10358;49.590;11.030;2022-12-18T16:05:28;33.67;;;13.87;;
20397;SDS011;10358;49.590;11.030;2022-12-18T16:07:54;29.07;;;12.00;;
20397;SDS011;10358;49.590;11.030;2022-12-18T16:10:19;35.67;;;13.43;;
20397;SDS011;10358;49.590;11.030;2022-12-18T16:12:45;33.73;;;14.27;;
20397;SDS011;10358;49.590;11.030;2022-12-18T16:15:12;29.33;;;12.80;;
20397;SDS011;10358;49.590;11.030;2022-12-18T16:17:40;32.07;;;12.43;;
20397;SDS011;10358;49.590;11.030;2022-12-18T16:20:13;28.93;;;12.27;;